Terminal Aerodrome Forecast
Issued by NWS

Home | Current Version | Previous Version | Graphics & Text | Print | Product List | Glossary On
Versions: 1 2 3 4 5 6 7 8 9 10 11 12 13 14 15 16 17 18 19 20 21 22 23 24 25 26 27 28 29 30 31 32 33 34 35
396
FTUS43 KLOT 302326
TAFMDW
TAF
KMDW 302326Z 0100/0124 04012KT P6SM VCSH BKN012 OVC018
      TEMPO 0100/0103 5SM -SHRA SCT008 OVC010
     FM010300 05009KT 4SM -SHRADZ BR BKN008 OVC012
     FM010800 04008KT 3SM -DZ BR OVC006
     FM011400 04010KT 5SM -SHRA BR OVC008
     FM011700 02008KT 6SM -SHRA BR OVC012
     FM012300 36007KT 6SM BR OVC008=

USA.gov is the U.S. government's official web portal to all federal, state and local government web resources and services.